createdAt,value
2017-01-09T00:01:58.200Z,3.64
2017-01-09T00:04:10.646Z,3.64
2017-01-09T00:06:23.029Z,3.64
2017-01-09T00:08:30.380Z,3.64
2017-01-09T00:10:42.643Z,3.64
2017-01-09T00:12:54.888Z,3.63
2017-01-09T00:15:07.334Z,3.63
2017-01-09T00:17:19.762Z,3.63
2017-01-09T00:19:33.310Z,3.63
2017-01-09T00:21:46.221Z,3.63
2017-01-09T00:23:53.645Z,3.63
2017-01-09T00:26:01.037Z,3.63
2017-01-09T00:28:13.356Z,3.63
2017-01-09T00:30:25.552Z,3.61
2017-01-09T00:32:32.877Z,3.62
2017-01-09T00:34:45.211Z,3.62
2017-01-09T00:36:58.520Z,3.62
2017-01-09T00:39:10.799Z,3.61
2017-01-09T00:41:23.054Z,3.62
2017-01-09T00:43:35.512Z,3.62
2017-01-09T00:45:47.858Z,3.62
2017-01-09T00:48:01.288Z,3.62
2017-01-09T00:50:13.715Z,3.61
2017-01-09T00:52:26.008Z,3.62
2017-01-09T00:54:39.703Z,3.63
2017-01-09T00:56:53.161Z,3.63
2017-01-09T00:59:05.592Z,3.62
2017-01-09T01:01:21.785Z,3.62
2017-01-09T01:03:34.159Z,3.63
2017-01-09T01:05:46.575Z,3.63
2017-01-09T01:07:58.835Z,3.63
2017-01-09T01:10:11.267Z,3.62
2017-01-09T01:12:26.677Z,3.63
2017-01-09T01:14:39.104Z,3.63
2017-01-09T01:16:51.631Z,3.63
2017-01-09T01:19:05.064Z,3.63
2017-01-09T01:21:17.467Z,3.63
2017-01-09T01:23:29.841Z,3.63
2017-01-09T01:25:42.198Z,3.63
2017-01-09T01:27:55.839Z,3.63
2017-01-09T01:30:08.842Z,3.63
2017-01-09T01:32:16.210Z,3.64
2017-01-09T01:34:28.454Z,3.62
2017-01-09T01:36:41.829Z,3.63
2017-01-09T01:38:54.156Z,3.63
2017-01-09T01:41:07.524Z,3.62
2017-01-09T01:43:15.145Z,3.63
2017-01-09T01:45:27.501Z,3.63
2017-01-09T01:47:34.817Z,3.63
2017-01-09T01:49:47.389Z,3.63
2017-01-09T01:51:54.924Z,3.63
2017-01-09T01:54:07.385Z,3.63
2017-01-09T01:56:19.849Z,3.63
2017-01-09T01:58:33.330Z,3.63
2017-01-09T02:00:46.141Z,3.63
2017-01-09T02:02:59.067Z,3.64
2017-01-09T02:05:11.646Z,3.63
2017-01-09T02:07:24.066Z,3.63
2017-01-09T02:09:36.554Z,3.62
2017-01-09T02:11:48.815Z,3.63
2017-01-09T02:14:00.987Z,3.63
2017-01-09T02:16:15.274Z,3.62
2017-01-09T02:18:27.777Z,3.62
2017-01-09T02:20:35.316Z,3.62
2017-01-09T02:22:47.652Z,3.63
2017-01-09T02:25:01.089Z,3.63
2017-01-09T02:27:14.471Z,3.63
2017-01-09T02:29:26.871Z,3.63
2017-01-09T02:31:38.017Z,3.63
2017-01-09T02:33:50.478Z,3.63
2017-01-09T02:35:58.059Z,3.63
2017-01-09T02:38:05.481Z,3.64
2017-01-09T02:40:18.862Z,3.64
2017-01-09T02:42:31.165Z,3.63
2017-01-09T02:44:41.048Z,3.64
2017-01-09T02:46:53.413Z,3.64
2017-01-09T02:49:05.926Z,3.63
2017-01-09T02:51:19.284Z,3.63
2017-01-09T02:53:32.666Z,3.64
2017-01-09T02:55:46.985Z,3.64
2017-01-09T02:57:59.219Z,3.64
2017-01-09T03:00:12.618Z,3.64
2017-01-09T03:02:24.949Z,3.64
2017-01-09T03:04:27.142Z,3.64
2017-01-09T03:06:39.368Z,3.64
2017-01-09T03:08:51.819Z,3.64
2017-01-09T03:11:05.419Z,3.64
2017-01-09T03:13:19.629Z,3.64
2017-01-09T03:15:32.031Z,3.64
2017-01-09T03:17:44.345Z,3.64
2017-01-09T03:19:58.432Z,3.65
2017-01-09T03:22:15.027Z,3.64
2017-01-09T03:24:30.037Z,3.64
2017-01-09T03:26:43.573Z,3.64
2017-01-09T03:28:57.987Z,3.65
2017-01-09T03:31:10.377Z,3.64
2017-01-09T03:33:23.828Z,3.64
2017-01-09T03:35:36.216Z,3.64
2017-01-09T03:37:48.489Z,3.64
2017-01-09T03:40:03.781Z,3.64
2017-01-09T03:42:16.180Z,3.65
2017-01-09T03:44:23.598Z,3.65
2017-01-09T03:46:36.227Z,3.64
2017-01-09T03:48:48.782Z,3.64
2017-01-09T03:50:56.341Z,3.64
2017-01-09T03:53:08.600Z,3.63
2017-01-09T03:55:20.889Z,3.64
2017-01-09T03:57:28.036Z,3.64
2017-01-09T03:59:40.211Z,3.64
2017-01-09T04:01:52.386Z,3.64
2017-01-09T04:04:04.723Z,3.64
2017-01-09T04:06:17.756Z,3.63
2017-01-09T04:08:24.974Z,3.64
2017-01-09T04:10:37.286Z,3.64
2017-01-09T04:12:49.842Z,3.64
2017-01-09T04:15:02.085Z,3.64
2017-01-09T04:17:14.481Z,3.64
2017-01-09T04:19:27.410Z,3.64
2017-01-09T04:21:40.445Z,3.64
2017-01-09T04:23:52.831Z,3.64
2017-01-09T04:26:05.085Z,3.64
2017-01-09T04:28:17.602Z,3.64
2017-01-09T04:30:29.822Z,3.64
2017-01-09T04:32:42.083Z,3.64
2017-01-09T04:34:55.418Z,3.63
2017-01-09T04:37:07.643Z,3.63
2017-01-09T04:39:14.920Z,3.64
2017-01-09T04:41:27.181Z,3.64
2017-01-09T04:43:39.403Z,3.64
2017-01-09T04:45:51.874Z,3.63
2017-01-09T04:48:04.609Z,3.64
2017-01-09T04:50:16.953Z,3.63
2017-01-09T04:52:29.727Z,3.63
2017-01-09T04:54:37.035Z,3.63
2017-01-09T04:56:49.717Z,3.63
2017-01-09T04:59:02.082Z,3.63
2017-01-09T05:01:15.302Z,3.62
2017-01-09T05:03:27.674Z,3.64
2017-01-09T05:05:40.006Z,3.63
2017-01-09T05:07:52.425Z,3.62
2017-01-09T05:09:59.687Z,3.63
2017-01-09T05:12:07.022Z,3.64
2017-01-09T05:14:19.376Z,3.63
2017-01-09T05:16:31.642Z,3.63
2017-01-09T05:18:43.970Z,3.63
2017-01-09T05:20:56.373Z,3.63
2017-01-09T05:23:08.647Z,3.62
2017-01-09T05:25:15.955Z,3.63
2017-01-09T05:27:28.078Z,3.63
2017-01-09T05:29:40.307Z,3.62
2017-01-09T05:31:52.972Z,3.62
2017-01-09T05:34:01.519Z,3.63
2017-01-09T05:36:13.716Z,3.63
2017-01-09T05:38:25.930Z,3.63
2017-01-09T05:40:38.154Z,3.62
2017-01-09T05:42:50.365Z,3.62
2017-01-09T05:45:02.785Z,3.63
2017-01-09T05:47:15.180Z,3.62
2017-01-09T05:49:27.576Z,3.62
2017-01-09T05:51:40.100Z,3.62
2017-01-09T05:53:47.485Z,3.62
2017-01-09T05:55:54.897Z,3.61
2017-01-09T05:58:07.166Z,3.61
2017-01-09T06:00:19.279Z,3.62
2017-01-09T06:02:31.595Z,3.61
2017-01-09T06:04:43.988Z,3.61
2017-01-09T06:06:56.450Z,3.62
2017-01-09T06:09:08.900Z,3.62
2017-01-09T06:11:21.061Z,3.61
2017-01-09T06:13:33.423Z,3.61
2017-01-09T06:15:45.703Z,3.6
2017-01-09T06:17:57.975Z,3.61
2017-01-09T06:20:05.246Z,3.61
2017-01-09T06:22:17.586Z,3.61
2017-01-09T06:24:29.926Z,3.61
2017-01-09T06:26:42.395Z,3.62
2017-01-09T06:28:54.730Z,3.61
2017-01-09T06:31:07.012Z,3.62
2017-01-09T06:33:19.218Z,3.61
2017-01-09T06:35:26.593Z,3.61
2017-01-09T06:37:38.773Z,3.61
2017-01-09T06:39:46.598Z,3.61
2017-01-09T06:41:59.427Z,3.62
2017-01-09T06:44:12.228Z,3.61
2017-01-09T06:46:19.491Z,3.62
2017-01-09T06:48:31.779Z,3.61
2017-01-09T06:50:44.270Z,3.62
2017-01-09T06:52:56.468Z,3.62
2017-01-09T06:55:08.690Z,3.62
2017-01-09T06:57:21.004Z,3.62
2017-01-09T06:59:33.438Z,3.62
2017-01-09T07:01:45.841Z,3.62
2017-01-09T07:03:57.997Z,3.63
2017-01-09T07:06:10.322Z,3.63
2017-01-09T07:08:17.662Z,3.63
2017-01-09T07:10:30.096Z,3.63
2017-01-09T07:12:42.500Z,3.64
2017-01-09T07:14:56.136Z,3.64
2017-01-09T07:17:08.727Z,3.64
2017-01-09T07:19:21.258Z,3.64
2017-01-09T07:21:33.655Z,3.64
2017-01-09T07:23:41.157Z,3.64
2017-01-09T07:25:53.627Z,3.64
2017-01-09T07:28:06.447Z,3.65
2017-01-09T07:30:18.697Z,3.65
2017-01-09T07:32:31.481Z,3.66
2017-01-09T07:34:44.438Z,3.67
2017-01-09T07:36:56.810Z,3.67
2017-01-09T07:39:09.435Z,3.68
2017-01-09T07:41:22.470Z,3.68
2017-01-09T07:43:35.401Z,3.69
2017-01-09T07:45:47.930Z,3.69
2017-01-09T07:48:00.497Z,3.7
2017-01-09T07:50:13.203Z,3.71
2017-01-09T07:52:23.995Z,3.73
2017-01-09T07:54:37.048Z,3.73
2017-01-09T07:56:49.746Z,3.74
2017-01-09T07:58:57.030Z,3.76
2017-01-09T08:01:09.396Z,3.77
2017-01-09T08:03:21.711Z,3.78
2017-01-09T08:05:34.154Z,3.78
2017-01-09T08:07:42.167Z,3.79
2017-01-09T08:09:54.521Z,3.8
2017-01-09T08:12:06.808Z,3.86
2017-01-09T08:14:19.294Z,4
2017-01-09T08:16:32.196Z,3.99
2017-01-09T08:18:39.505Z,3.96
2017-01-09T08:20:51.753Z,3.96
2017-01-09T08:23:04.054Z,3.94
2017-01-09T08:25:16.341Z,3.92
2017-01-09T08:27:28.655Z,3.97
2017-01-09T08:29:41.502Z,4.02
2017-01-09T08:31:53.922Z,4.1
2017-01-09T08:34:06.232Z,4.19
2017-01-09T08:36:13.489Z,4.25
2017-01-09T08:38:26.028Z,4.37
2017-01-09T08:40:38.284Z,4.47
2017-01-09T08:42:50.458Z,4.51
2017-01-09T08:45:03.703Z,4.58
2017-01-09T08:47:16.202Z,4.67
2017-01-09T08:49:28.395Z,4.79
2017-01-09T08:51:40.815Z,4.84
2017-01-09T08:53:48.225Z,4.86
2017-01-09T08:56:00.587Z,4.89
2017-01-09T08:58:12.828Z,4.95
2017-01-09T09:00:25.087Z,4.97
2017-01-09T09:02:32.599Z,5.04
2017-01-09T09:04:45.080Z,5.07
2017-01-09T09:06:52.457Z,5.14
2017-01-09T09:08:59.719Z,5.2
2017-01-09T09:11:11.871Z,5.18
2017-01-09T09:13:26.805Z,5.21
2017-01-09T09:15:39.104Z,5.26
2017-01-09T09:17:51.754Z,5.24
2017-01-09T09:20:17.530Z,5.27
2017-01-09T09:22:29.838Z,5.32
2017-01-09T09:24:55.494Z,5.44
2017-01-09T09:27:07.743Z,5.48
2017-01-09T09:29:20.003Z,5.58
2017-01-09T09:31:32.296Z,5.71
2017-01-09T09:33:44.488Z,5.8
2017-01-09T09:35:51.732Z,5.87
2017-01-09T09:37:59.172Z,6
2017-01-09T09:40:11.942Z,6.09
2017-01-09T09:42:24.172Z,6.18
2017-01-09T09:44:35.098Z,6.27
2017-01-09T09:46:52.743Z,6.4
2017-01-09T09:49:14.813Z,6.49
2017-01-09T09:51:39.041Z,6.53
2017-01-09T09:53:55.275Z,6.59
2017-01-09T09:56:07.516Z,6.58
2017-01-09T09:58:19.824Z,6.54
2017-01-09T10:00:27.183Z,6.53
2017-01-09T10:02:39.395Z,6.56
2017-01-09T10:04:51.944Z,6.64
2017-01-09T10:07:04.426Z,6.72
2017-01-09T10:09:16.612Z,6.8
2017-01-09T10:11:28.927Z,6.92
2017-01-09T10:13:41.318Z,7.04
2017-01-09T10:15:53.926Z,7.13
2017-01-09T10:18:06.282Z,7.27
2017-01-09T10:20:19.586Z,7.36
2017-01-09T10:22:31.976Z,7.45
2017-01-09T10:24:44.347Z,7.5
2017-01-09T10:26:56.681Z,7.52
2017-01-09T10:29:04.606Z,7.59
2017-01-09T10:31:16.791Z,7.63
2017-01-09T10:33:29.004Z,7.57
2017-01-09T10:35:41.261Z,7.53
2017-01-09T10:37:53.445Z,7.58
2017-01-09T10:40:05.976Z,7.68
2017-01-09T10:42:13.425Z,7.78
2017-01-09T10:44:25.539Z,7.9
2017-01-09T10:46:33.010Z,7.9
2017-01-09T10:48:45.397Z,7.89
2017-01-09T10:50:58.013Z,7.9
2017-01-09T10:53:10.771Z,7.92
2017-01-09T10:55:25.433Z,7.93
2017-01-09T10:57:37.966Z,7.91
2017-01-09T10:59:50.362Z,7.88
2017-01-09T11:02:02.802Z,7.88
2017-01-09T11:04:15.995Z,7.89
2017-01-09T11:06:28.230Z,7.91
2017-01-09T11:08:40.490Z,7.88
2017-01-09T11:10:52.772Z,7.84
2017-01-09T11:13:05.276Z,7.83
2017-01-09T11:15:17.483Z,7.78
2017-01-09T11:17:29.691Z,7.78
2017-01-09T11:19:41.888Z,7.75
2017-01-09T11:21:54.178Z,7.73
2017-01-09T11:24:06.545Z,7.72
2017-01-09T11:26:13.750Z,7.73
2017-01-09T11:28:26.157Z,7.74
2017-01-09T11:30:33.642Z,7.76
2017-01-09T11:32:45.927Z,7.78
2017-01-09T11:34:58.392Z,7.8
2017-01-09T11:37:10.649Z,7.81
2017-01-09T11:39:22.899Z,7.81
2017-01-09T11:41:30.324Z,7.78
2017-01-09T11:43:42.548Z,7.71
2017-01-09T11:45:54.837Z,7.65
2017-01-09T11:48:07.046Z,7.61
2017-01-09T11:50:19.583Z,7.54
2017-01-09T11:52:31.978Z,7.48
2017-01-09T11:54:44.311Z,7.42
2017-01-09T11:56:51.738Z,7.43
2017-01-09T11:59:04.110Z,7.45
2017-01-09T12:01:16.470Z,7.46
2017-01-09T12:03:28.767Z,7.51
2017-01-09T12:05:32.706Z,7.58
2017-01-09T12:07:45.046Z,7.61
2017-01-09T12:09:57.556Z,7.65
2017-01-09T12:12:09.819Z,7.68
2017-01-09T12:14:22.076Z,7.73
2017-01-09T12:16:34.347Z,7.74
2017-01-09T12:18:46.736Z,7.69
2017-01-09T12:20:54.249Z,7.64
2017-01-09T12:23:06.696Z,7.58
2017-01-09T12:25:19.223Z,7.51
2017-01-09T12:27:26.634Z,7.44
2017-01-09T12:29:38.922Z,7.39
2017-01-09T12:31:52.319Z,7.33
2017-01-09T12:34:00.318Z,7.29
2017-01-09T12:36:12.917Z,7.23
2017-01-09T12:38:20.626Z,7.22
2017-01-09T12:40:33.108Z,7.2
2017-01-09T12:42:40.807Z,7.2
2017-01-09T12:44:54.520Z,7.2
2017-01-09T12:47:09.266Z,7.16
2017-01-09T12:49:23.794Z,7.11
2017-01-09T12:51:42.566Z,7.07
2017-01-09T12:53:52.104Z,7.04
2017-01-09T12:56:04.538Z,7
2017-01-09T12:58:17.054Z,6.98
2017-01-09T13:00:30.744Z,6.93
2017-01-09T13:02:43.604Z,6.9
2017-01-09T13:04:55.954Z,6.85
2017-01-09T13:07:08.448Z,6.76
2017-01-09T13:09:20.925Z,6.68
2017-01-09T13:11:33.187Z,6.6
2017-01-09T13:13:45.737Z,6.53
2017-01-09T13:15:53.267Z,6.43
2017-01-09T13:18:00.849Z,6.35
2017-01-09T13:20:13.491Z,6.33
2017-01-09T13:22:20.896Z,6.33
2017-01-09T13:24:28.437Z,6.34
2017-01-09T13:26:41.028Z,6.31
2017-01-09T13:28:48.545Z,6.24
2017-01-09T13:31:01.207Z,6.15
2017-01-09T13:33:13.515Z,6.07
2017-01-09T13:35:25.820Z,6.01
2017-01-09T13:37:38.449Z,5.96
2017-01-09T13:39:50.728Z,5.91
2017-01-09T13:42:03.381Z,5.83
2017-01-09T13:44:15.895Z,5.74
2017-01-09T13:46:28.481Z,5.66
2017-01-09T13:48:41.095Z,5.57
2017-01-09T13:50:53.578Z,5.48
2017-01-09T13:53:00.997Z,5.4
2017-01-09T13:55:13.718Z,5.31
2017-01-09T13:57:26.511Z,5.19
2017-01-09T13:59:39.089Z,5.1
2017-01-09T14:01:51.527Z,5.02
2017-01-09T14:04:04.084Z,4.95
2017-01-09T14:06:16.531Z,4.89
2017-01-09T14:08:24.277Z,4.85
2017-01-09T14:10:37.071Z,4.81
2017-01-09T14:12:49.693Z,4.76
2017-01-09T14:15:02.022Z,4.71
2017-01-09T14:17:14.411Z,4.66
2017-01-09T14:19:27.090Z,4.61
2017-01-09T14:21:39.380Z,4.55
2017-01-09T14:23:51.913Z,4.49
2017-01-09T14:26:04.635Z,4.43
2017-01-09T14:28:17.202Z,4.38
2017-01-09T14:30:30.572Z,4.33
2017-01-09T14:32:43.250Z,4.32
2017-01-09T14:34:55.937Z,4.29
2017-01-09T14:37:09.602Z,4.27
2017-01-09T14:39:22.025Z,4.22
2017-01-09T14:41:51.207Z,4.15
2017-01-09T14:44:44.638Z,4.11
2017-01-09T14:47:11.615Z,4.09
2017-01-09T14:49:24.002Z,4.03
2017-01-09T14:51:36.533Z,4.02
2017-01-09T14:53:49.296Z,4
2017-01-09T14:55:53.117Z,3.97
2017-01-09T14:58:05.518Z,3.94
2017-01-09T15:00:18.068Z,3.91
2017-01-09T15:02:30.455Z,3.87
2017-01-09T15:04:43.050Z,3.81
2017-01-09T15:06:55.890Z,3.74
2017-01-09T15:09:08.425Z,3.68
2017-01-09T15:11:21.064Z,3.62
2017-01-09T15:13:28.496Z,3.55
2017-01-09T15:15:41.165Z,3.46
2017-01-09T15:17:53.791Z,3.36
2017-01-09T15:20:02.181Z,3.31
2017-01-09T15:22:15.785Z,3.28
2017-01-09T15:24:28.272Z,3.24
2017-01-09T15:26:36.844Z,3.2
2017-01-09T15:28:49.764Z,3.15
2017-01-09T15:31:03.191Z,3.09
2017-01-09T15:33:11.041Z,3.04
2017-01-09T15:35:23.478Z,2.99
2017-01-09T15:37:35.829Z,2.95
2017-01-09T15:39:48.484Z,2.91
2017-01-09T15:42:00.941Z,2.9
2017-01-09T15:44:08.615Z,2.88
2017-01-09T15:46:21.143Z,2.86
2017-01-09T15:48:33.913Z,2.83
2017-01-09T15:50:42.575Z,2.82
2017-01-09T15:52:55.031Z,2.82
2017-01-09T15:55:07.410Z,2.82
2017-01-09T15:57:19.750Z,2.81
2017-01-09T15:59:32.436Z,2.82
2017-01-09T16:01:45.288Z,2.81
2017-01-09T16:03:57.786Z,2.81
2017-01-09T16:06:10.330Z,2.81
2017-01-09T16:08:22.648Z,2.78
2017-01-09T16:10:30.192Z,2.75
2017-01-09T16:12:42.622Z,2.73
2017-01-09T16:14:54.073Z,2.71
2017-01-09T16:17:06.855Z,2.7
2017-01-09T16:19:22.342Z,2.69
2017-01-09T16:21:35.805Z,2.67
2017-01-09T16:23:45.803Z,2.63
2017-01-09T16:25:59.474Z,2.59
2017-01-09T16:28:16.277Z,2.55
2017-01-09T16:30:28.749Z,2.55
2017-01-09T16:32:42.560Z,2.55
2017-01-09T16:34:55.419Z,2.54
2017-01-09T16:37:12.696Z,2.52
2017-01-09T16:39:20.448Z,2.52
2017-01-09T16:41:33.268Z,2.51
2017-01-09T16:43:49.958Z,2.52
2017-01-09T16:46:06.055Z,2.53
2017-01-09T16:48:18.387Z,2.55
2017-01-09T16:50:30.954Z,2.56
2017-01-09T16:52:43.580Z,2.55
2017-01-09T16:54:55.951Z,2.52
2017-01-09T16:57:03.608Z,2.5
2017-01-09T16:59:27.948Z,2.44
2017-01-09T17:01:42.384Z,2.44
2017-01-09T17:04:11.453Z,2.43
2017-01-09T17:06:36.770Z,2.43
2017-01-09T17:08:50.428Z,2.41
2017-01-09T17:11:02.995Z,2.38
2017-01-09T17:13:15.540Z,2.35
2017-01-09T17:15:28.073Z,2.3
2017-01-09T17:17:40.641Z,2.25
2017-01-09T17:19:52.998Z,2.22
2017-01-09T17:22:05.366Z,2.23
2017-01-09T17:24:13.087Z,2.23
2017-01-09T17:26:25.615Z,2.24
2017-01-09T17:28:38.222Z,2.26
2017-01-09T17:30:50.669Z,2.25
2017-01-09T17:33:03.156Z,2.23
2017-01-09T17:35:15.497Z,2.23
2017-01-09T17:37:29.341Z,2.26
2017-01-09T17:39:36.983Z,2.27
2017-01-09T17:41:51.259Z,2.28
2017-01-09T17:44:04.404Z,2.32
2017-01-09T17:46:17.316Z,2.34
2017-01-09T17:48:30.850Z,2.36
2017-01-09T17:50:44.599Z,2.38
2017-01-09T17:52:58.151Z,2.4
2017-01-09T17:55:11.498Z,2.4
2017-01-09T17:57:15.241Z,2.35
2017-01-09T17:59:31.695Z,2.34
2017-01-09T18:01:44.943Z,2.32
2017-01-09T18:03:57.805Z,2.33
2017-01-09T18:06:11.565Z,2.32
2017-01-09T18:08:30.355Z,2.25
2017-01-09T18:10:39.298Z,2.21
2017-01-09T18:12:53.716Z,2.21
2017-01-09T18:14:59.801Z,2.24
2017-01-09T18:17:14.541Z,2.26
2017-01-09T18:19:27.557Z,2.26
2017-01-09T18:21:40.195Z,2.24
2017-01-09T18:23:52.657Z,2.21
2017-01-09T18:26:06.917Z,2.2
2017-01-09T18:28:20.994Z,2.22
2017-01-09T18:30:35.528Z,2.23
2017-01-09T18:32:50.204Z,2.25
2017-01-09T18:35:03.799Z,2.25
2017-01-09T18:37:17.273Z,2.25
2017-01-09T18:39:32.411Z,2.26
2017-01-09T18:41:47.797Z,2.28
2017-01-09T18:44:00.652Z,2.3
2017-01-09T18:46:15.902Z,2.31
2017-01-09T18:48:30.478Z,2.31
2017-01-09T18:50:45.613Z,2.31
2017-01-09T18:53:00.194Z,2.31
2017-01-09T18:55:16.423Z,2.32
2017-01-09T18:57:31.614Z,2.32
2017-01-09T18:59:44.218Z,2.31
2017-01-09T19:02:05.186Z,2.3
2017-01-09T19:04:22.615Z,2.26
2017-01-09T19:06:51.768Z,2.21
2017-01-09T19:09:22.058Z,2.14
2017-01-09T19:11:35.926Z,2.08
2017-01-09T19:13:47.514Z,2.05
2017-01-09T19:16:03.322Z,2.05
2017-01-09T19:18:20.338Z,2.05
2017-01-09T19:20:34.767Z,2.05
2017-01-09T19:22:51.618Z,2.07
2017-01-09T19:25:11.599Z,2.07
2017-01-09T19:27:27.864Z,2.08
2017-01-09T19:29:45.256Z,2.09
2017-01-09T19:31:57.043Z,2.09
2017-01-09T19:34:13.652Z,2.07
2017-01-09T19:36:32.651Z,2.03
2017-01-09T19:38:49.558Z,2.02
2017-01-09T19:41:04.987Z,2.01
2017-01-09T19:43:18.655Z,2.01
2017-01-09T19:45:30.374Z,2
2017-01-09T19:47:45.621Z,1.98
2017-01-09T19:50:02.700Z,1.97
2017-01-09T19:52:19.303Z,1.97
2017-01-09T19:54:36.797Z,1.94
2017-01-09T19:56:55.292Z,1.91
2017-01-09T19:59:13.189Z,1.89
2017-01-09T20:01:29.712Z,1.87
2017-01-09T20:03:49.523Z,1.88
2017-01-09T20:06:11.074Z,1.89
2017-01-09T20:08:30.986Z,1.86
2017-01-09T20:10:58.824Z,1.82
2017-01-09T20:13:21.090Z,1.81
2017-01-09T20:15:47.616Z,1.82
2017-01-09T20:18:47.142Z,1.83
2017-01-09T20:21:47.951Z,1.85
2017-01-09T20:24:29.455Z,1.82
2017-01-09T20:26:59.282Z,1.81
2017-01-09T20:29:35.560Z,1.8
2017-01-09T20:31:55.783Z,1.81
2017-01-09T20:34:28.255Z,1.8
2017-01-09T20:37:01.599Z,1.79
2017-01-09T20:39:23.903Z,1.8
2017-01-09T20:42:06.065Z,1.79
2017-01-09T20:44:34.267Z,1.76
2017-01-09T20:46:59.646Z,1.75
2017-01-09T20:49:30.606Z,1.75
2017-01-09T20:52:22.998Z,1.71
2017-01-09T20:54:41.961Z,1.66
2017-01-09T20:57:17.894Z,1.65
2017-01-09T21:00:27.538Z,1.65
2017-01-09T21:03:11.832Z,1.64
2017-01-09T21:05:41.172Z,1.62
2017-01-09T21:08:02.532Z,1.61
2017-01-09T21:10:34.019Z,1.61
2017-01-09T21:12:58.635Z,1.63
2017-01-09T21:15:26.132Z,1.61
2017-01-09T21:17:40.594Z,1.59
2017-01-09T21:19:55.525Z,1.58
2017-01-09T21:22:31.157Z,1.57
2017-01-09T21:24:50.879Z,1.58
2017-01-09T21:27:27.660Z,1.57
2017-01-09T21:29:59.823Z,1.57
